TAF Text Data
IDs:
Format:
Raw Decoded Include METAR

Data at: 1347 UTC 17 Sep 2019

KCSV 171120Z 1712/1812 VRB03KT P6SM SKC
  FM171700 35006KT P6SM BKN050
  FM180600 VRB03KT P6SM SKC